sensor_id;sensor_type;location;lat;lon;timestamp;temperature;humidity
12901;DHT22;6518;50.930;5.344;2022-07-24T00:02:24;23.60;57.40
12901;DHT22;6518;50.930;5.344;2022-07-24T00:04:51;23.50;57.50
12901;DHT22;6518;50.930;5.344;2022-07-24T00:07:21;23.50;57.60
12901;DHT22;6518;50.930;5.344;2022-07-24T00:09:49;23.50;57.60
12901;DHT22;6518;50.930;5.344;2022-07-24T00:12:15;23.50;57.70
12901;DHT22;6518;50.930;5.344;2022-07-24T00:14:44;23.50;57.80
12901;DHT22;6518;50.930;5.344;2022-07-24T00:17:11;23.40;57.80
12901;DHT22;6518;50.930;5.344;2022-07-24T00:19:38;23.40;57.80
12901;DHT22;6518;50.930;5.344;2022-07-24T00:22:04;23.40;58.50
12901;DHT22;6518;50.930;5.344;2022-07-24T00:24:31;23.40;57.90
12901;DHT22;6518;50.930;5.344;2022-07-24T00:26:58;23.40;58.00
12901;DHT22;6518;50.930;5.344;2022-07-24T00:29:26;23.40;58.00
12901;DHT22;6518;50.930;5.344;2022-07-24T00:31:54;23.30;58.00
12901;DHT22;6518;50.930;5.344;2022-07-24T00:34:21;23.30;58.10
12901;DHT22;6518;50.930;5.344;2022-07-24T00:36:48;23.20;58.00
12901;DHT22;6518;50.930;5.344;2022-07-24T00:39:15;23.20;58.00
12901;DHT22;6518;50.930;5.344;2022-07-24T00:41:42;23.10;58.00
12901;DHT22;6518;50.930;5.344;2022-07-24T00:44:10;23.10;58.10
12901;DHT22;6518;50.930;5.344;2022-07-24T00:46:40;23.10;58.20
12901;DHT22;6518;50.930;5.344;2022-07-24T00:49:10;23.00;58.10
12901;DHT22;6518;50.930;5.344;2022-07-24T00:51:40;23.00;58.90
12901;DHT22;6518;50.930;5.344;2022-07-24T00:54:09;23.00;58.20
12901;DHT22;6518;50.930;5.344;2022-07-24T00:56:37;22.80;58.40
12901;DHT22;6518;50.930;5.344;2022-07-24T00:59:04;22.80;58.60
12901;DHT22;6518;50.930;5.344;2022-07-24T01:01:31;22.80;58.80
12901;DHT22;6518;50.930;5.344;2022-07-24T01:03:59;22.70;58.90
12901;DHT22;6518;50.930;5.344;2022-07-24T01:06:28;22.80;59.00
12901;DHT22;6518;50.930;5.344;2022-07-24T01:08:55;22.70;59.10
12901;DHT22;6518;50.930;5.344;2022-07-24T01:11:23;22.70;59.20
12901;DHT22;6518;50.930;5.344;2022-07-24T01:13:50;22.70;60.00
12901;DHT22;6518;50.930;5.344;2022-07-24T01:16:17;22.70;60.00
12901;DHT22;6518;50.930;5.344;2022-07-24T01:18:45;22.70;59.40
12901;DHT22;6518;50.930;5.344;2022-07-24T01:21:13;22.70;59.50
12901;DHT22;6518;50.930;5.344;2022-07-24T01:23:40;22.70;59.50
12901;DHT22;6518;50.930;5.344;2022-07-24T01:26:07;22.60;59.60
12901;DHT22;6518;50.930;5.344;2022-07-24T01:28:34;22.60;59.80
12901;DHT22;6518;50.930;5.344;2022-07-24T01:31:01;22.60;59.80
12901;DHT22;6518;50.930;5.344;2022-07-24T01:33:28;22.60;60.00
12901;DHT22;6518;50.930;5.344;2022-07-24T01:35:55;22.50;60.10
12901;DHT22;6518;50.930;5.344;2022-07-24T01:38:24;22.50;60.90
12901;DHT22;6518;50.930;5.344;2022-07-24T01:40:51;22.50;60.30
12901;DHT22;6518;50.930;5.344;2022-07-24T01:43:18;22.40;60.30
12901;DHT22;6518;50.930;5.344;2022-07-24T01:45:45;22.40;60.40
12901;DHT22;6518;50.930;5.344;2022-07-24T01:48:12;22.40;60.50
12901;DHT22;6518;50.930;5.344;2022-07-24T01:50:39;22.40;60.50
12901;DHT22;6518;50.930;5.344;2022-07-24T01:53:07;22.30;60.70
12901;DHT22;6518;50.930;5.344;2022-07-24T01:55:35;22.30;60.80
12901;DHT22;6518;50.930;5.344;2022-07-24T01:58:02;22.30;60.90
12901;DHT22;6518;50.930;5.344;2022-07-24T02:00:29;22.30;61.00
12901;DHT22;6518;50.930;5.344;2022-07-24T02:02:56;22.20;61.10
12901;DHT22;6518;50.930;5.344;2022-07-24T02:05:23;22.20;61.20
12901;DHT22;6518;50.930;5.344;2022-07-24T02:07:55;22.20;61.10
12901;DHT22;6518;50.930;5.344;2022-07-24T02:10:23;22.20;61.30
12901;DHT22;6518;50.930;5.344;2022-07-24T02:12:52;22.20;61.30
12901;DHT22;6518;50.930;5.344;2022-07-24T02:15:19;22.20;61.40
12901;DHT22;6518;50.930;5.344;2022-07-24T02:17:47;22.20;61.30
12901;DHT22;6518;50.930;5.344;2022-07-24T02:20:14;22.10;61.50
12901;DHT22;6518;50.930;5.344;2022-07-24T02:22:41;22.10;61.50
12901;DHT22;6518;50.930;5.344;2022-07-24T02:25:09;22.10;61.50
12901;DHT22;6518;50.930;5.344;2022-07-24T02:27:37;22.10;61.70
12901;DHT22;6518;50.930;5.344;2022-07-24T02:30:08;22.00;61.70
12901;DHT22;6518;50.930;5.344;2022-07-24T02:32:35;22.00;61.80
12901;DHT22;6518;50.930;5.344;2022-07-24T02:35:03;22.00;61.90
12901;DHT22;6518;50.930;5.344;2022-07-24T02:37:30;22.00;62.00
12901;DHT22;6518;50.930;5.344;2022-07-24T02:39:57;22.00;62.20
12901;DHT22;6518;50.930;5.344;2022-07-24T02:42:24;22.00;62.30
12901;DHT22;6518;50.930;5.344;2022-07-24T02:44:51;22.00;62.30
12901;DHT22;6518;50.930;5.344;2022-07-24T02:47:19;21.90;62.30
12901;DHT22;6518;50.930;5.344;2022-07-24T02:49:46;21.90;62.60
12901;DHT22;6518;50.930;5.344;2022-07-24T02:52:16;21.90;62.60
12901;DHT22;6518;50.930;5.344;2022-07-24T02:54:42;21.80;62.90
12901;DHT22;6518;50.930;5.344;2022-07-24T02:57:09;21.80;63.00
12901;DHT22;6518;50.930;5.344;2022-07-24T02:59:36;21.70;63.10
12901;DHT22;6518;50.930;5.344;2022-07-24T03:02:03;21.70;63.30
12901;DHT22;6518;50.930;5.344;2022-07-24T03:04:32;21.70;63.40
12901;DHT22;6518;50.930;5.344;2022-07-24T03:06:59;21.70;63.40
12901;DHT22;6518;50.930;5.344;2022-07-24T03:09:26;21.60;63.40
12901;DHT22;6518;50.930;5.344;2022-07-24T03:11:53;21.60;63.60
12901;DHT22;6518;50.930;5.344;2022-07-24T03:14:20;21.60;63.70
12901;DHT22;6518;50.930;5.344;2022-07-24T03:16:47;21.60;63.90
12901;DHT22;6518;50.930;5.344;2022-07-24T03:19:14;21.50;63.80
12901;DHT22;6518;50.930;5.344;2022-07-24T03:21:42;21.50;63.90
12901;DHT22;6518;50.930;5.344;2022-07-24T03:24:09;21.50;64.00
12901;DHT22;6518;50.930;5.344;2022-07-24T03:26:36;21.40;64.10
12901;DHT22;6518;50.930;5.344;2022-07-24T03:29:03;21.40;64.20
12901;DHT22;6518;50.930;5.344;2022-07-24T03:31:30;21.40;64.30
12901;DHT22;6518;50.930;5.344;2022-07-24T03:33:57;21.30;64.40
12901;DHT22;6518;50.930;5.344;2022-07-24T03:36:24;21.20;64.60
12901;DHT22;6518;50.930;5.344;2022-07-24T03:38:52;21.20;64.80
12901;DHT22;6518;50.930;5.344;2022-07-24T03:41:19;21.20;65.10
12901;DHT22;6518;50.930;5.344;2022-07-24T03:43:46;21.20;65.20
12901;DHT22;6518;50.930;5.344;2022-07-24T03:46:13;21.20;65.40
12901;DHT22;6518;50.930;5.344;2022-07-24T03:48:40;21.20;65.40
12901;DHT22;6518;50.930;5.344;2022-07-24T03:51:07;21.10;65.50
12901;DHT22;6518;50.930;5.344;2022-07-24T03:53:34;21.10;65.60
12901;DHT22;6518;50.930;5.344;2022-07-24T03:56:05;21.10;65.70
12901;DHT22;6518;50.930;5.344;2022-07-24T03:58:32;21.10;65.90
12901;DHT22;6518;50.930;5.344;2022-07-24T04:00:59;21.10;65.90
12901;DHT22;6518;50.930;5.344;2022-07-24T04:03:26;21.00;65.90
12901;DHT22;6518;50.930;5.344;2022-07-24T04:05:53;21.00;66.00
12901;DHT22;6518;50.930;5.344;2022-07-24T04:08:20;21.00;66.10
12901;DHT22;6518;50.930;5.344;2022-07-24T04:10:47;21.00;66.30
12901;DHT22;6518;50.930;5.344;2022-07-24T04:13:16;21.00;66.40
12901;DHT22;6518;50.930;5.344;2022-07-24T04:15:43;21.00;66.60
12901;DHT22;6518;50.930;5.344;2022-07-24T04:18:09;21.00;66.60
12901;DHT22;6518;50.930;5.344;2022-07-24T04:20:37;21.00;66.70
12901;DHT22;6518;50.930;5.344;2022-07-24T04:23:03;21.00;66.80
12901;DHT22;6518;50.930;5.344;2022-07-24T04:25:30;21.00;66.90
12901;DHT22;6518;50.930;5.344;2022-07-24T04:28:00;21.00;67.00
12901;DHT22;6518;50.930;5.344;2022-07-24T04:30:29;21.00;66.80
12901;DHT22;6518;50.930;5.344;2022-07-24T04:32:57;21.00;66.90
12901;DHT22;6518;50.930;5.344;2022-07-24T04:35:24;21.00;66.80
12901;DHT22;6518;50.930;5.344;2022-07-24T04:37:51;21.00;67.00
12901;DHT22;6518;50.930;5.344;2022-07-24T04:40:21;21.00;67.10
12901;DHT22;6518;50.930;5.344;2022-07-24T04:42:48;21.00;67.00
12901;DHT22;6518;50.930;5.344;2022-07-24T04:45:15;21.00;67.00
12901;DHT22;6518;50.930;5.344;2022-07-24T04:47:43;21.00;67.20
12901;DHT22;6518;50.930;5.344;2022-07-24T04:50:10;20.90;67.30
12901;DHT22;6518;50.930;5.344;2022-07-24T04:52:37;21.00;67.60
12901;DHT22;6518;50.930;5.344;2022-07-24T04:55:05;21.00;67.70
12901;DHT22;6518;50.930;5.344;2022-07-24T04:57:32;21.00;67.80
12901;DHT22;6518;50.930;5.344;2022-07-24T04:59:59;21.00;67.80
12901;DHT22;6518;50.930;5.344;2022-07-24T05:02:26;21.00;68.00
12901;DHT22;6518;50.930;5.344;2022-07-24T05:04:54;21.00;68.00
12901;DHT22;6518;50.930;5.344;2022-07-24T05:07:22;21.00;68.00
12901;DHT22;6518;50.930;5.344;2022-07-24T05:09:49;21.00;68.10
12901;DHT22;6518;50.930;5.344;2022-07-24T05:12:16;21.00;68.10
12901;DHT22;6518;50.930;5.344;2022-07-24T05:14:42;21.00;68.10
12901;DHT22;6518;50.930;5.344;2022-07-24T05:17:09;21.10;68.20
12901;DHT22;6518;50.930;5.344;2022-07-24T05:19:36;21.10;68.10
12901;DHT22;6518;50.930;5.344;2022-07-24T05:22:05;21.10;68.00
12901;DHT22;6518;50.930;5.344;2022-07-24T05:24:32;21.10;68.10
12901;DHT22;6518;50.930;5.344;2022-07-24T05:26:59;21.10;68.20
12901;DHT22;6518;50.930;5.344;2022-07-24T05:29:26;21.20;68.30
12901;DHT22;6518;50.930;5.344;2022-07-24T05:31:53;21.20;68.30
12901;DHT22;6518;50.930;5.344;2022-07-24T05:34:20;21.30;68.20
12901;DHT22;6518;50.930;5.344;2022-07-24T05:36:47;21.30;68.30
12901;DHT22;6518;50.930;5.344;2022-07-24T05:39:16;21.30;68.30
12901;DHT22;6518;50.930;5.344;2022-07-24T05:41:43;21.40;68.40
12901;DHT22;6518;50.930;5.344;2022-07-24T05:44:10;21.40;68.40
12901;DHT22;6518;50.930;5.344;2022-07-24T05:46:37;21.50;68.40
12901;DHT22;6518;50.930;5.344;2022-07-24T05:49:04;21.50;68.40
12901;DHT22;6518;50.930;5.344;2022-07-24T05:51:31;21.50;68.40
12901;DHT22;6518;50.930;5.344;2022-07-24T05:53:58;21.60;68.50
12901;DHT22;6518;50.930;5.344;2022-07-24T05:56:26;21.60;68.50
12901;DHT22;6518;50.930;5.344;2022-07-24T05:58:53;21.70;68.50
12901;DHT22;6518;50.930;5.344;2022-07-24T06:01:20;21.70;68.40
12901;DHT22;6518;50.930;5.344;2022-07-24T06:03:47;21.80;68.40
12901;DHT22;6518;50.930;5.344;2022-07-24T06:06:14;21.80;68.40
12901;DHT22;6518;50.930;5.344;2022-07-24T06:08:41;21.90;68.50
12901;DHT22;6518;50.930;5.344;2022-07-24T06:11:08;21.90;68.30
12901;DHT22;6518;50.930;5.344;2022-07-24T06:13:36;22.00;68.30
12901;DHT22;6518;50.930;5.344;2022-07-24T06:16:04;22.00;68.20
12901;DHT22;6518;50.930;5.344;2022-07-24T06:18:32;22.10;68.10
12901;DHT22;6518;50.930;5.344;2022-07-24T06:20:59;22.10;68.00
12901;DHT22;6518;50.930;5.344;2022-07-24T06:23:26;22.20;67.80
12901;DHT22;6518;50.930;5.344;2022-07-24T06:25:53;22.20;67.60
12901;DHT22;6518;50.930;5.344;2022-07-24T06:28:20;22.20;67.60
12901;DHT22;6518;50.930;5.344;2022-07-24T06:30:49;22.30;67.70
12901;DHT22;6518;50.930;5.344;2022-07-24T06:33:16;22.30;67.40
12901;DHT22;6518;50.930;5.344;2022-07-24T06:35:43;22.30;67.40
12901;DHT22;6518;50.930;5.344;2022-07-24T06:38:10;22.40;67.30
12901;DHT22;6518;50.930;5.344;2022-07-24T06:40:37;22.40;67.00
12901;DHT22;6518;50.930;5.344;2022-07-24T06:43:05;22.40;67.00
12901;DHT22;6518;50.930;5.344;2022-07-24T06:45:32;22.40;66.80
12901;DHT22;6518;50.930;5.344;2022-07-24T06:48:01;22.40;66.80
12901;DHT22;6518;50.930;5.344;2022-07-24T06:50:29;22.40;66.80
12901;DHT22;6518;50.930;5.344;2022-07-24T06:52:56;22.40;66.70
12901;DHT22;6518;50.930;5.344;2022-07-24T06:55:23;22.50;66.60
12901;DHT22;6518;50.930;5.344;2022-07-24T06:57:50;22.50;66.50
12901;DHT22;6518;50.930;5.344;2022-07-24T07:00:17;22.50;66.50
12901;DHT22;6518;50.930;5.344;2022-07-24T07:02:44;22.50;66.50
12901;DHT22;6518;50.930;5.344;2022-07-24T07:05:13;22.60;66.50
12901;DHT22;6518;50.930;5.344;2022-07-24T07:07:40;22.70;66.20
12901;DHT22;6518;50.930;5.344;2022-07-24T07:10:08;22.70;66.20
12901;DHT22;6518;50.930;5.344;2022-07-24T07:12:35;22.70;65.90
12901;DHT22;6518;50.930;5.344;2022-07-24T07:15:03;22.80;65.90
12901;DHT22;6518;50.930;5.344;2022-07-24T07:17:30;22.80;65.70
12901;DHT22;6518;50.930;5.344;2022-07-24T07:19:57;22.80;65.80
12901;DHT22;6518;50.930;5.344;2022-07-24T07:22:25;22.90;65.90
12901;DHT22;6518;50.930;5.344;2022-07-24T07:24:53;22.90;65.70
12901;DHT22;6518;50.930;5.344;2022-07-24T07:27:19;23.00;65.40
12901;DHT22;6518;50.930;5.344;2022-07-24T07:29:47;23.10;65.40
12901;DHT22;6518;50.930;5.344;2022-07-24T07:32:14;23.10;65.20
12901;DHT22;6518;50.930;5.344;2022-07-24T07:34:41;23.20;65.20
12901;DHT22;6518;50.930;5.344;2022-07-24T07:37:11;23.20;65.10
12901;DHT22;6518;50.930;5.344;2022-07-24T07:39:39;23.20;65.00
12901;DHT22;6518;50.930;5.344;2022-07-24T07:42:06;23.30;65.00
12901;DHT22;6518;50.930;5.344;2022-07-24T07:44:33;23.40;65.00
12901;DHT22;6518;50.930;5.344;2022-07-24T07:47:00;23.50;64.90
12901;DHT22;6518;50.930;5.344;2022-07-24T07:49:27;23.50;64.60
12901;DHT22;6518;50.930;5.344;2022-07-24T07:51:54;23.60;64.40
12901;DHT22;6518;50.930;5.344;2022-07-24T07:54:21;23.60;64.30
12901;DHT22;6518;50.930;5.344;2022-07-24T07:56:50;23.70;64.20
12901;DHT22;6518;50.930;5.344;2022-07-24T07:59:16;23.70;64.00
12901;DHT22;6518;50.930;5.344;2022-07-24T08:01:43;23.80;63.80
12901;DHT22;6518;50.930;5.344;2022-07-24T08:04:10;23.80;63.80
12901;DHT22;6518;50.930;5.344;2022-07-24T08:06:37;23.80;63.80
12901;DHT22;6518;50.930;5.344;2022-07-24T08:09:04;23.90;63.80
12901;DHT22;6518;50.930;5.344;2022-07-24T08:11:31;24.00;63.80
12901;DHT22;6518;50.930;5.344;2022-07-24T08:13:59;24.00;63.60
12901;DHT22;6518;50.930;5.344;2022-07-24T08:16:26;24.10;63.40
12901;DHT22;6518;50.930;5.344;2022-07-24T08:18:53;24.10;63.30
12901;DHT22;6518;50.930;5.344;2022-07-24T08:21:20;24.20;63.10
12901;DHT22;6518;50.930;5.344;2022-07-24T08:23:48;24.20;63.00
12901;DHT22;6518;50.930;5.344;2022-07-24T08:26:16;24.30;62.90
12901;DHT22;6518;50.930;5.344;2022-07-24T08:28:43;24.30;62.50
12901;DHT22;6518;50.930;5.344;2022-07-24T08:31:11;24.30;62.20
12901;DHT22;6518;50.930;5.344;2022-07-24T08:33:38;24.40;61.90
12901;DHT22;6518;50.930;5.344;2022-07-24T08:36:06;24.40;61.60
12901;DHT22;6518;50.930;5.344;2022-07-24T08:38:33;24.40;61.30
12901;DHT22;6518;50.930;5.344;2022-07-24T08:41:00;24.50;60.80
12901;DHT22;6518;50.930;5.344;2022-07-24T08:43:28;24.50;60.40
12901;DHT22;6518;50.930;5.344;2022-07-24T08:45:55;24.60;60.50
12901;DHT22;6518;50.930;5.344;2022-07-24T08:48:24;24.60;60.00
12901;DHT22;6518;50.930;5.344;2022-07-24T08:50:53;24.60;59.70
12901;DHT22;6518;50.930;5.344;2022-07-24T08:53:22;24.70;59.70
12901;DHT22;6518;50.930;5.344;2022-07-24T08:55:49;24.70;60.40
12901;DHT22;6518;50.930;5.344;2022-07-24T08:58:16;24.80;59.60
12901;DHT22;6518;50.930;5.344;2022-07-24T09:00:44;24.90;59.40
12901;DHT22;6518;50.930;5.344;2022-07-24T09:03:11;24.90;59.30
12901;DHT22;6518;50.930;5.344;2022-07-24T09:05:54;24.90;59.20
12901;DHT22;6518;50.930;5.344;2022-07-24T09:08:21;24.90;58.40
12901;DHT22;6518;50.930;5.344;2022-07-24T09:10:56;24.90;58.10
12901;DHT22;6518;50.930;5.344;2022-07-24T09:13:26;24.90;58.10
12901;DHT22;6518;50.930;5.344;2022-07-24T09:16:17;25.00;57.80
12901;DHT22;6518;50.930;5.344;2022-07-24T09:18:48;25.00;57.70
12901;DHT22;6518;50.930;5.344;2022-07-24T09:21:17;25.00;57.50
12901;DHT22;6518;50.930;5.344;2022-07-24T09:23:44;25.00;57.40
12901;DHT22;6518;50.930;5.344;2022-07-24T09:26:11;25.00;57.50
12901;DHT22;6518;50.930;5.344;2022-07-24T09:28:52;25.10;57.40
12901;DHT22;6518;50.930;5.344;2022-07-24T09:31:19;25.10;57.30
12901;DHT22;6518;50.930;5.344;2022-07-24T09:33:48;25.20;57.30
12901;DHT22;6518;50.930;5.344;2022-07-24T09:36:18;25.30;56.90
12901;DHT22;6518;50.930;5.344;2022-07-24T09:38:47;25.30;56.70
12901;DHT22;6518;50.930;5.344;2022-07-24T09:41:19;25.30;56.70
12901;DHT22;6518;50.930;5.344;2022-07-24T09:43:56;25.30;57.10
12901;DHT22;6518;50.930;5.344;2022-07-24T09:46:24;25.40;56.30
12901;DHT22;6518;50.930;5.344;2022-07-24T09:48:53;25.40;56.20
12901;DHT22;6518;50.930;5.344;2022-07-24T09:51:25;25.40;56.20
12901;DHT22;6518;50.930;5.344;2022-07-24T09:53:54;25.50;57.10
12901;DHT22;6518;50.930;5.344;2022-07-24T09:56:23;25.60;56.60
12901;DHT22;6518;50.930;5.344;2022-07-24T09:58:52;25.60;56.40
12901;DHT22;6518;50.930;5.344;2022-07-24T10:01:21;25.60;56.20
12901;DHT22;6518;50.930;5.344;2022-07-24T10:03:49;25.70;56.00
12901;DHT22;6518;50.930;5.344;2022-07-24T10:06:26;25.70;55.90
12901;DHT22;6518;50.930;5.344;2022-07-24T10:08:54;25.80;55.50
12901;DHT22;6518;50.930;5.344;2022-07-24T10:11:21;25.90;55.40
12901;DHT22;6518;50.930;5.344;2022-07-24T10:13:49;25.90;55.10
12901;DHT22;6518;50.930;5.344;2022-07-24T10:16:26;26.00;54.80
12901;DHT22;6518;50.930;5.344;2022-07-24T10:18:54;26.00;54.90
12901;DHT22;6518;50.930;5.344;2022-07-24T10:21:25;26.10;55.00
12901;DHT22;6518;50.930;5.344;2022-07-24T10:24:12;26.10;54.60
12901;DHT22;6518;50.930;5.344;2022-07-24T10:26:44;26.10;54.40
12901;DHT22;6518;50.930;5.344;2022-07-24T10:29:13;26.10;54.50
12901;DHT22;6518;50.930;5.344;2022-07-24T10:31:42;26.20;54.50
12901;DHT22;6518;50.930;5.344;2022-07-24T10:34:13;26.30;54.10
12901;DHT22;6518;50.930;5.344;2022-07-24T10:36:48;26.30;53.70
12901;DHT22;6518;50.930;5.344;2022-07-24T10:39:22;26.40;53.40
12901;DHT22;6518;50.930;5.344;2022-07-24T10:42:00;26.40;53.10
12901;DHT22;6518;50.930;5.344;2022-07-24T10:44:27;26.40;53.20
12901;DHT22;6518;50.930;5.344;2022-07-24T10:47:00;26.40;53.00
12901;DHT22;6518;50.930;5.344;2022-07-24T10:49:44;26.40;53.00
12901;DHT22;6518;50.930;5.344;2022-07-24T10:52:22;26.50;53.00
12901;DHT22;6518;50.930;5.344;2022-07-24T10:55:18;26.50;53.00
12901;DHT22;6518;50.930;5.344;2022-07-24T10:57:46;26.60;53.00
12901;DHT22;6518;50.930;5.344;2022-07-24T11:00:25;26.70;53.20
12901;DHT22;6518;50.930;5.344;2022-07-24T11:02:57;26.70;53.10
12901;DHT22;6518;50.930;5.344;2022-07-24T11:05:32;26.80;53.00
12901;DHT22;6518;50.930;5.344;2022-07-24T11:08:37;26.90;52.90
12901;DHT22;6518;50.930;5.344;2022-07-24T11:11:07;26.90;52.80
12901;DHT22;6518;50.930;5.344;2022-07-24T11:13:51;27.00;52.90
12901;DHT22;6518;50.930;5.344;2022-07-24T11:16:20;27.00;52.60
12901;DHT22;6518;50.930;5.344;2022-07-24T11:22:03;27.10;52.00
12901;DHT22;6518;50.930;5.344;2022-07-24T11:24:31;27.20;51.90
12901;DHT22;6518;50.930;5.344;2022-07-24T11:27:02;27.20;52.00
12901;DHT22;6518;50.930;5.344;2022-07-24T11:29:32;27.20;51.90
12901;DHT22;6518;50.930;5.344;2022-07-24T11:32:02;27.20;52.10
12901;DHT22;6518;50.930;5.344;2022-07-24T11:34:31;27.20;52.10
12901;DHT22;6518;50.930;5.344;2022-07-24T11:36:59;27.20;52.10
12901;DHT22;6518;50.930;5.344;2022-07-24T11:39:28;27.30;52.20
12901;DHT22;6518;50.930;5.344;2022-07-24T11:41:58;27.20;52.10
12901;DHT22;6518;50.930;5.344;2022-07-24T11:44:27;27.30;52.00
12901;DHT22;6518;50.930;5.344;2022-07-24T11:46:55;27.30;51.80
12901;DHT22;6518;50.930;5.344;2022-07-24T11:49:23;27.30;52.00
12901;DHT22;6518;50.930;5.344;2022-07-24T11:51:53;27.40;52.10
12901;DHT22;6518;50.930;5.344;2022-07-24T11:54:22;27.40;52.10
12901;DHT22;6518;50.930;5.344;2022-07-24T11:56:50;27.40;52.10
12901;DHT22;6518;50.930;5.344;2022-07-24T11:59:26;27.40;52.00
12901;DHT22;6518;50.930;5.344;2022-07-24T12:02:03;27.40;51.80
12901;DHT22;6518;50.930;5.344;2022-07-24T12:04:30;27.40;52.00
12901;DHT22;6518;50.930;5.344;2022-07-24T12:06:57;27.50;52.10
12901;DHT22;6518;50.930;5.344;2022-07-24T12:09:24;27.50;52.00
12901;DHT22;6518;50.930;5.344;2022-07-24T12:11:51;27.60;52.00
12901;DHT22;6518;50.930;5.344;2022-07-24T12:14:20;27.60;51.90
12901;DHT22;6518;50.930;5.344;2022-07-24T12:16:54;27.70;51.80
12901;DHT22;6518;50.930;5.344;2022-07-24T12:19:22;27.60;51.80
12901;DHT22;6518;50.930;5.344;2022-07-24T12:21:51;27.70;51.90
12901;DHT22;6518;50.930;5.344;2022-07-24T12:24:20;27.70;51.60
12901;DHT22;6518;50.930;5.344;2022-07-24T12:26:51;27.80;51.60
12901;DHT22;6518;50.930;5.344;2022-07-24T12:29:18;27.80;51.60
12901;DHT22;6518;50.930;5.344;2022-07-24T12:31:46;27.80;51.20
12901;DHT22;6518;50.930;5.344;2022-07-24T12:34:14;27.80;51.40
12901;DHT22;6518;50.930;5.344;2022-07-24T12:36:42;27.90;51.60
12901;DHT22;6518;50.930;5.344;2022-07-24T12:39:11;27.90;51.60
12901;DHT22;6518;50.930;5.344;2022-07-24T12:41:43;28.00;51.40
12901;DHT22;6518;50.930;5.344;2022-07-24T12:44:11;28.00;51.40
12901;DHT22;6518;50.930;5.344;2022-07-24T12:46:39;28.10;51.50
12901;DHT22;6518;50.930;5.344;2022-07-24T12:49:08;28.10;51.30
12901;DHT22;6518;50.930;5.344;2022-07-24T12:51:50;28.10;51.20
12901;DHT22;6518;50.930;5.344;2022-07-24T12:54:19;28.20;51.20
12901;DHT22;6518;50.930;5.344;2022-07-24T12:56:48;28.20;51.20
12901;DHT22;6518;50.930;5.344;2022-07-24T12:59:23;28.20;51.10
12901;DHT22;6518;50.930;5.344;2022-07-24T13:01:52;28.30;51.10
12901;DHT22;6518;50.930;5.344;2022-07-24T13:04:20;28.40;51.00
12901;DHT22;6518;50.930;5.344;2022-07-24T13:06:50;28.40;50.70
12901;DHT22;6518;50.930;5.344;2022-07-24T13:09:18;28.40;50.60
12901;DHT22;6518;50.930;5.344;2022-07-24T13:11:47;28.50;50.50
12901;DHT22;6518;50.930;5.344;2022-07-24T13:14:15;28.50;50.50
12901;DHT22;6518;50.930;5.344;2022-07-24T13:16:45;28.60;50.40
12901;DHT22;6518;50.930;5.344;2022-07-24T13:19:13;28.60;50.40
12901;DHT22;6518;50.930;5.344;2022-07-24T13:21:41;28.60;50.30
12901;DHT22;6518;50.930;5.344;2022-07-24T13:24:11;28.60;50.20
12901;DHT22;6518;50.930;5.344;2022-07-24T13:26:39;28.60;50.20
12901;DHT22;6518;50.930;5.344;2022-07-24T13:29:06;28.60;50.30
12901;DHT22;6518;50.930;5.344;2022-07-24T13:31:33;28.70;50.50
12901;DHT22;6518;50.930;5.344;2022-07-24T13:34:00;28.70;50.50
12901;DHT22;6518;50.930;5.344;2022-07-24T13:36:27;28.80;50.50
12901;DHT22;6518;50.930;5.344;2022-07-24T13:38:54;28.90;50.40
12901;DHT22;6518;50.930;5.344;2022-07-24T13:41:23;28.90;50.40
12901;DHT22;6518;50.930;5.344;2022-07-24T13:43:50;28.90;50.30
12901;DHT22;6518;50.930;5.344;2022-07-24T13:46:17;29.00;50.30
12901;DHT22;6518;50.930;5.344;2022-07-24T13:48:44;29.10;50.40
12901;DHT22;6518;50.930;5.344;2022-07-24T13:51:11;29.10;50.20
12901;DHT22;6518;50.930;5.344;2022-07-24T13:53:38;29.10;50.20
12901;DHT22;6518;50.930;5.344;2022-07-24T13:56:05;29.10;50.10
12901;DHT22;6518;50.930;5.344;2022-07-24T13:58:34;29.00;50.10
12901;DHT22;6518;50.930;5.344;2022-07-24T14:01:02;29.00;50.10
12901;DHT22;6518;50.930;5.344;2022-07-24T14:03:29;29.10;50.30
12901;DHT22;6518;50.930;5.344;2022-07-24T14:05:56;29.10;50.30
12901;DHT22;6518;50.930;5.344;2022-07-24T14:08:23;29.20;50.90
12901;DHT22;6518;50.930;5.344;2022-07-24T14:10:50;29.20;50.10
12901;DHT22;6518;50.930;5.344;2022-07-24T14:13:17;29.20;50.00
12901;DHT22;6518;50.930;5.344;2022-07-24T14:15:45;29.30;50.00
12901;DHT22;6518;50.930;5.344;2022-07-24T14:18:12;29.30;50.00
12901;DHT22;6518;50.930;5.344;2022-07-24T14:20:39;29.40;49.90
12901;DHT22;6518;50.930;5.344;2022-07-24T14:23:06;29.40;49.80
12901;DHT22;6518;50.930;5.344;2022-07-24T14:25:33;29.50;49.70
12901;DHT22;6518;50.930;5.344;2022-07-24T14:28:00;29.50;49.40
12901;DHT22;6518;50.930;5.344;2022-07-24T14:30:27;29.50;49.40
12901;DHT22;6518;50.930;5.344;2022-07-24T14:32:55;29.50;49.20
12901;DHT22;6518;50.930;5.344;2022-07-24T14:35:22;29.60;49.30
12901;DHT22;6518;50.930;5.344;2022-07-24T14:37:49;29.60;49.20
12901;DHT22;6518;50.930;5.344;2022-07-24T14:40:16;29.70;49.20
12901;DHT22;6518;50.930;5.344;2022-07-24T14:42:43;29.70;49.00
12901;DHT22;6518;50.930;5.344;2022-07-24T14:45:10;29.70;48.90
12901;DHT22;6518;50.930;5.344;2022-07-24T14:47:37;29.80;48.90
12901;DHT22;6518;50.930;5.344;2022-07-24T14:50:07;29.80;48.70
12901;DHT22;6518;50.930;5.344;2022-07-24T14:52:35;29.90;48.60
12901;DHT22;6518;50.930;5.344;2022-07-24T14:55:02;29.90;48.50
12901;DHT22;6518;50.930;5.344;2022-07-24T14:57:30;29.90;48.40
12901;DHT22;6518;50.930;5.344;2022-07-24T14:59:56;30.00;48.30
12901;DHT22;6518;50.930;5.344;2022-07-24T15:02:24;30.00;48.00
12901;DHT22;6518;50.930;5.344;2022-07-24T15:04:51;30.00;48.00
12901;DHT22;6518;50.930;5.344;2022-07-24T15:07:19;30.00;47.90
12901;DHT22;6518;50.930;5.344;2022-07-24T15:09:46;30.10;47.70
12901;DHT22;6518;50.930;5.344;2022-07-24T15:12:13;30.10;47.70
12901;DHT22;6518;50.930;5.344;2022-07-24T15:14:40;30.20;47.60
12901;DHT22;6518;50.930;5.344;2022-07-24T15:17:07;30.20;47.50
12901;DHT22;6518;50.930;5.344;2022-07-24T15:19:34;30.20;47.50
12901;DHT22;6518;50.930;5.344;2022-07-24T15:22:01;30.20;47.40
12901;DHT22;6518;50.930;5.344;2022-07-24T15:24:29;30.20;47.50
12901;DHT22;6518;50.930;5.344;2022-07-24T15:26:56;30.20;47.30
12901;DHT22;6518;50.930;5.344;2022-07-24T15:29:23;30.30;47.10
12901;DHT22;6518;50.930;5.344;2022-07-24T15:31:50;30.30;47.00
12901;DHT22;6518;50.930;5.344;2022-07-24T15:34:17;30.40;47.00
12901;DHT22;6518;50.930;5.344;2022-07-24T15:36:44;30.40;46.90
12901;DHT22;6518;50.930;5.344;2022-07-24T15:39:11;30.50;46.70
12901;DHT22;6518;50.930;5.344;2022-07-24T15:41:39;30.50;46.60
12901;DHT22;6518;50.930;5.344;2022-07-24T15:44:06;30.50;46.50
12901;DHT22;6518;50.930;5.344;2022-07-24T15:46:34;30.60;46.50
12901;DHT22;6518;50.930;5.344;2022-07-24T15:49:03;30.60;46.30
12901;DHT22;6518;50.930;5.344;2022-07-24T15:51:31;30.60;46.10
12901;DHT22;6518;50.930;5.344;2022-07-24T15:53:58;30.70;46.20
12901;DHT22;6518;50.930;5.344;2022-07-24T15:56:25;30.70;46.10